createdAt,value
2018-06-21T00:02:03.894Z,4.37
2018-06-21T00:04:32.789Z,4.43
2018-06-21T00:07:01.761Z,4.47
2018-06-21T00:09:30.876Z,4.37
2018-06-21T00:11:59.824Z,4.33
2018-06-21T00:14:28.799Z,4.27
2018-06-21T00:16:57.737Z,4.70
2018-06-21T00:19:26.793Z,3.83
2018-06-21T00:21:55.704Z,4.20
2018-06-21T00:24:27.138Z,4.90
2018-06-21T00:26:53.621Z,4.33
2018-06-21T00:29:22.587Z,4.53
2018-06-21T00:31:54.535Z,4.43
2018-06-21T00:34:23.531Z,4.80
2018-06-21T00:36:52.491Z,4.40
2018-06-21T00:39:21.444Z,4.57
2018-06-21T00:41:50.397Z,4.53
2018-06-21T00:44:19.329Z,4.57
2018-06-21T00:46:49.037Z,3.93
2018-06-21T00:49:19.128Z,4.40
2018-06-21T00:51:48.212Z,4.23
2018-06-21T00:54:17.154Z,4.80
2018-06-21T00:56:46.084Z,4.87
2018-06-21T00:59:15.034Z,4.47
2018-06-21T01:01:44.027Z,4.53
2018-06-21T01:04:12.968Z,4.50
2018-06-21T01:06:41.952Z,4.57
2018-06-21T01:09:10.893Z,4.27
2018-06-21T01:11:39.960Z,6.03
2018-06-21T01:14:09.006Z,4.90
2018-06-21T01:16:37.933Z,5.50
2018-06-21T01:19:06.926Z,4.57
2018-06-21T01:21:35.867Z,5.27
2018-06-21T01:24:04.746Z,5.40
2018-06-21T01:26:33.681Z,5.13
2018-06-21T01:29:02.638Z,5.23
2018-06-21T01:31:31.620Z,5.57
2018-06-21T01:34:00.587Z,5.73
2018-06-21T01:36:29.480Z,6.20
2018-06-21T01:38:58.433Z,7.77
2018-06-21T01:41:27.387Z,7.13
2018-06-21T01:43:56.310Z,7.37
2018-06-21T01:46:25.309Z,7.40
2018-06-21T01:48:54.341Z,8.93
2018-06-21T01:51:23.325Z,9.15
2018-06-21T01:53:59.255Z,10.23
2018-06-21T01:56:24.995Z,11.63
2018-06-21T01:58:53.892Z,12.30
2018-06-21T02:01:22.850Z,11.10
2018-06-21T02:03:51.879Z,13.88
2018-06-21T02:06:20.868Z,11.03
2018-06-21T02:08:49.784Z,13.83
2018-06-21T02:11:19.178Z,12.60
2018-06-21T02:13:48.271Z,13.90
2018-06-21T02:16:17.348Z,12.70
2018-06-21T02:18:46.543Z,13.67
2018-06-21T02:21:15.541Z,14.07
2018-06-21T02:23:44.520Z,16.95
2018-06-21T02:26:13.527Z,16.73
2018-06-21T02:28:42.558Z,18.07
2018-06-21T02:31:11.495Z,18.20
2018-06-21T02:33:40.475Z,16.97
2018-06-21T02:36:09.406Z,18.03
2018-06-21T02:38:38.429Z,17.83
2018-06-21T02:41:07.463Z,16.67
2018-06-21T02:43:36.381Z,17.10
2018-06-21T02:46:05.609Z,16.90
2018-06-21T02:48:35.247Z,20.43
2018-06-21T02:51:05.053Z,16.50
2018-06-21T02:53:33.967Z,17.07
2018-06-21T02:56:04.162Z,19.27
2018-06-21T02:58:33.123Z,18.48
2018-06-21T03:01:02.333Z,16.47
2018-06-21T03:03:31.297Z,17.03
2018-06-21T03:06:00.545Z,17.90
2018-06-21T03:08:29.721Z,18.30
2018-06-21T03:10:58.671Z,19.00
2018-06-21T03:13:30.081Z,21.70
2018-06-21T03:15:59.077Z,21.67
2018-06-21T03:18:28.088Z,20.80
2018-06-21T03:20:56.996Z,22.40
2018-06-21T03:23:25.987Z,22.30
2018-06-21T03:25:54.981Z,24.73
2018-06-21T03:28:24.011Z,24.23
2018-06-21T03:30:52.947Z,25.30
2018-06-21T03:33:21.945Z,26.87
2018-06-21T03:35:50.914Z,30.88
2018-06-21T03:38:25.953Z,27.03
2018-06-21T03:40:54.868Z,25.80
2018-06-21T03:43:23.887Z,27.03
2018-06-21T03:45:52.842Z,27.63
2018-06-21T03:48:24.016Z,27.17
2018-06-21T03:50:58.828Z,32.85
2018-06-21T03:53:27.985Z,27.57
2018-06-21T03:55:56.990Z,27.87
2018-06-21T03:58:29.251Z,26.57
2018-06-21T04:00:58.170Z,27.93
2018-06-21T04:03:27.107Z,27.53
2018-06-21T04:05:56.101Z,27.53
2018-06-21T04:08:25.091Z,32.63
2018-06-21T04:10:54.052Z,28.03
2018-06-21T04:13:23.007Z,34.18
2018-06-21T04:15:52.037Z,27.93
2018-06-21T04:18:43.588Z,28.43
2018-06-21T04:21:12.504Z,27.77
2018-06-21T04:23:41.427Z,28.50
2018-06-21T04:26:22.189Z,28.83
2018-06-21T04:28:52.808Z,28.07
2018-06-21T04:31:21.813Z,34.98
2018-06-21T04:33:50.757Z,27.63
2018-06-21T04:36:19.696Z,27.60
2018-06-21T04:38:51.634Z,27.00
2018-06-21T04:41:20.560Z,26.83
2018-06-21T04:43:49.540Z,26.43
2018-06-21T04:46:19.929Z,27.43
2018-06-21T04:48:54.609Z,25.60
2018-06-21T04:51:27.162Z,25.27
2018-06-21T04:53:57.848Z,24.53
2018-06-21T04:56:26.773Z,28.62
2018-06-21T04:59:01.507Z,25.67
2018-06-21T05:01:30.469Z,23.67
2018-06-21T05:03:59.415Z,24.27
2018-06-21T05:06:28.503Z,23.37
2018-06-21T05:08:57.359Z,22.70
2018-06-21T05:11:26.249Z,22.47
2018-06-21T05:13:55.249Z,21.70
2018-06-21T05:16:24.252Z,21.00
2018-06-21T05:18:53.141Z,17.00
2018-06-21T05:21:23.384Z,12.90
2018-06-21T05:23:52.244Z,9.33
2018-06-21T05:26:21.269Z,7.00
2018-06-21T05:28:50.064Z,5.67
2018-06-21T05:31:19.131Z,5.80
2018-06-21T05:33:48.321Z,5.07
2018-06-21T05:36:17.231Z,5.13
2018-06-21T05:38:46.724Z,4.77
2018-06-21T05:41:15.717Z,4.60
2018-06-21T05:43:44.654Z,4.27
2018-06-21T05:46:13.687Z,4.70
2018-06-21T05:48:42.620Z,3.93
2018-06-21T05:51:11.479Z,3.90
2018-06-21T05:53:40.819Z,3.77
2018-06-21T05:56:10.209Z,3.70
2018-06-21T05:58:40.978Z,3.37
2018-06-21T06:01:10.278Z,3.27
2018-06-21T06:03:39.139Z,2.97
2018-06-21T06:06:10.034Z,3.50
2018-06-21T06:08:37.054Z,2.70
2018-06-21T06:11:09.120Z,2.80
2018-06-21T06:13:38.007Z,2.37
2018-06-21T06:16:19.326Z,2.37
2018-06-21T06:18:59.705Z,2.77
2018-06-21T06:21:35.650Z,2.30
2018-06-21T06:24:30.324Z,2.70
2018-06-21T06:27:17.609Z,2.00
2018-06-21T06:29:56.429Z,2.20
2018-06-21T06:35:16.341Z,1.87
2018-06-21T06:37:51.398Z,2.37
2018-06-21T06:40:29.875Z,2.43
2018-06-21T06:43:09.841Z,2.40
2018-06-21T06:45:42.866Z,2.17
2018-06-21T06:48:22.232Z,2.10
2018-06-21T06:50:46.806Z,2.33
2018-06-21T06:53:26.920Z,2.63
2018-06-21T06:55:54.731Z,2.13
2018-06-21T06:58:29.118Z,2.63
2018-06-21T07:00:56.494Z,2.20
2018-06-21T07:03:35.813Z,2.40
2018-06-21T07:06:04.646Z,2.20
2018-06-21T07:08:54.104Z,2.17
2018-06-21T07:11:23.966Z,2.50
2018-06-21T07:13:56.292Z,2.30
2018-06-21T07:16:29.306Z,2.20
2018-06-21T07:19:04.030Z,2.43
2018-06-21T07:21:37.842Z,2.73
2018-06-21T07:24:13.132Z,2.90
2018-06-21T07:26:53.118Z,2.80
2018-06-21T07:29:22.511Z,3.33
2018-06-21T07:31:57.232Z,2.90
2018-06-21T07:34:28.152Z,2.80
2018-06-21T07:37:05.971Z,3.07
2018-06-21T07:39:37.493Z,3.03
2018-06-21T07:42:14.318Z,3.00
2018-06-21T07:44:51.223Z,2.97
2018-06-21T07:47:24.896Z,2.70
2018-06-21T07:50:01.195Z,2.90
2018-06-21T07:52:40.844Z,3.00
2018-06-21T07:55:11.354Z,3.50
2018-06-21T07:57:47.262Z,2.90
2018-06-21T08:00:19.752Z,2.80
2018-06-21T08:02:52.899Z,2.80
2018-06-21T08:05:25.245Z,2.90
2018-06-21T08:07:58.626Z,2.30
2018-06-21T08:10:29.931Z,2.37
2018-06-21T08:13:04.079Z,2.65
2018-06-21T08:15:32.700Z,3.07
2018-06-21T08:18:09.439Z,2.47
2018-06-21T08:20:37.457Z,2.77
2018-06-21T08:23:15.306Z,2.77
2018-06-21T08:28:17.210Z,2.50
2018-06-21T08:30:54.180Z,2.17
2018-06-21T08:33:32.080Z,1.97
2018-06-21T08:35:59.600Z,1.95
2018-06-21T08:38:33.456Z,1.90
2018-06-21T08:41:06.913Z,2.40
2018-06-21T08:43:39.221Z,2.00
2018-06-21T08:46:11.463Z,2.45
2018-06-21T08:48:46.382Z,2.60
2018-06-21T08:51:26.892Z,2.45
2018-06-21T08:53:56.488Z,2.37
2018-06-21T08:56:31.460Z,2.12
2018-06-21T08:58:59.488Z,2.52
2018-06-21T09:01:35.402Z,1.87
2018-06-21T09:04:08.000Z,2.30
2018-06-21T09:06:43.048Z,2.00
2018-06-21T09:09:23.759Z,2.17
2018-06-21T09:11:59.618Z,1.87
2018-06-21T09:14:30.787Z,2.00
2018-06-21T09:16:58.986Z,1.80
2018-06-21T09:19:31.629Z,1.90
2018-06-21T09:22:07.360Z,1.65
2018-06-21T09:24:47.514Z,1.95
2018-06-21T09:27:37.156Z,2.60
2018-06-21T09:30:14.134Z,2.12
2018-06-21T09:32:45.062Z,2.10
2018-06-21T09:35:18.234Z,2.30
2018-06-21T09:38:10.733Z,2.30
2018-06-21T09:41:05.504Z,2.20
2018-06-21T09:44:04.358Z,2.17
2018-06-21T09:47:05.090Z,2.10
2018-06-21T09:49:33.263Z,1.70
2018-06-21T09:52:09.600Z,2.27
2018-06-21T09:54:45.369Z,2.10
2018-06-21T09:57:19.578Z,1.90
2018-06-21T09:59:51.129Z,1.70
2018-06-21T10:02:24.061Z,1.98
2018-06-21T10:04:57.660Z,2.02
2018-06-21T10:07:26.817Z,1.70
2018-06-21T10:10:07.642Z,2.40
2018-06-21T10:12:37.747Z,2.02
2018-06-21T10:15:26.790Z,1.72
2018-06-21T10:18:02.435Z,1.75
2018-06-21T10:20:38.277Z,2.10
2018-06-21T10:23:11.893Z,2.12
2018-06-21T10:25:42.928Z,1.67
2018-06-21T10:28:20.367Z,2.20
2018-06-21T10:30:52.346Z,1.85
2018-06-21T10:33:33.497Z,2.20
2018-06-21T10:36:10.214Z,2.00
2018-06-21T10:38:43.605Z,1.98
2018-06-21T10:41:15.454Z,2.35
2018-06-21T10:43:44.848Z,2.27
2018-06-21T10:46:24.016Z,2.20
2018-06-21T10:49:05.758Z,2.20
2018-06-21T10:51:44.230Z,2.05
2018-06-21T10:54:22.947Z,2.02
2018-06-21T10:57:00.379Z,2.33
2018-06-21T10:59:32.335Z,2.00
2018-06-21T11:02:04.262Z,2.02
2018-06-21T11:04:36.453Z,1.92
2018-06-21T11:07:04.253Z,2.27
2018-06-21T11:09:33.422Z,2.27
2018-06-21T11:12:08.185Z,2.17
2018-06-21T11:14:46.280Z,2.12
2018-06-21T11:17:17.947Z,2.30
2018-06-21T11:22:49.432Z,2.10
2018-06-21T11:25:20.235Z,2.00
2018-06-21T11:27:54.784Z,1.57
2018-06-21T11:30:22.219Z,1.80
2018-06-21T11:33:05.898Z,1.80
2018-06-21T11:35:38.809Z,2.55
2018-06-21T11:38:11.880Z,1.80
2018-06-21T11:40:51.072Z,2.10
2018-06-21T11:43:31.545Z,1.77
2018-06-21T11:46:01.070Z,2.20
2018-06-21T11:48:30.439Z,1.70
2018-06-21T11:51:00.062Z,2.00
2018-06-21T11:53:36.131Z,1.77
2018-06-21T11:56:06.063Z,1.87
2018-06-21T11:58:37.693Z,1.85
2018-06-21T12:01:10.087Z,1.98
2018-06-21T12:03:42.029Z,2.02
2018-06-21T12:06:14.668Z,2.00
2018-06-21T12:08:54.560Z,1.70
2018-06-21T12:11:39.029Z,1.52
2018-06-21T12:14:05.072Z,2.08
2018-06-21T12:16:39.735Z,2.30
2018-06-21T12:19:20.476Z,2.43
2018-06-21T12:21:53.660Z,1.80
2018-06-21T12:24:26.014Z,2.12
2018-06-21T12:27:02.841Z,1.90
2018-06-21T12:29:36.499Z,2.25
2018-06-21T12:32:08.515Z,2.30
2018-06-21T12:34:40.816Z,1.80
2018-06-21T12:37:25.822Z,1.80
2018-06-21T12:39:52.946Z,2.07
2018-06-21T12:42:24.983Z,1.97
2018-06-21T12:44:54.399Z,1.93
2018-06-21T12:47:27.758Z,1.30
2018-06-21T12:49:56.585Z,2.07
2018-06-21T12:52:30.449Z,1.50
2018-06-21T12:54:59.874Z,1.83
2018-06-21T12:57:38.490Z,1.70
2018-06-21T13:00:17.029Z,1.80
2018-06-21T13:02:51.464Z,1.77
2018-06-21T13:05:31.900Z,1.43
2018-06-21T13:08:00.136Z,1.60
2018-06-21T13:11:06.983Z,1.73
2018-06-21T13:13:39.250Z,1.73
2018-06-21T13:16:21.211Z,2.07
2018-06-21T13:19:01.933Z,1.30
2018-06-21T13:21:39.421Z,1.53
2018-06-21T13:24:07.284Z,1.67
2018-06-21T13:26:37.060Z,1.70
2018-06-21T13:29:10.710Z,1.80
2018-06-21T13:32:04.995Z,1.77
2018-06-21T13:34:30.656Z,1.97
2018-06-21T13:37:03.116Z,1.40
2018-06-21T13:39:41.343Z,1.30
2018-06-21T13:42:14.530Z,1.47
2018-06-21T13:44:53.741Z,1.80
2018-06-21T13:47:23.931Z,1.57
2018-06-21T13:49:56.857Z,1.60
2018-06-21T13:52:39.386Z,1.60
2018-06-21T13:55:05.575Z,1.70
2018-06-21T13:57:46.376Z,1.80
2018-06-21T14:00:21.607Z,1.90
2018-06-21T14:02:55.318Z,1.57
2018-06-21T14:05:24.944Z,2.00
2018-06-21T14:07:56.900Z,1.60
2018-06-21T14:10:25.464Z,1.60
2018-06-21T14:12:57.161Z,1.63
2018-06-21T14:15:31.964Z,1.73
2018-06-21T14:17:58.391Z,2.08
2018-06-21T14:20:30.416Z,1.57
2018-06-21T14:23:04.733Z,1.60
2018-06-21T14:25:35.933Z,1.70
2018-06-21T14:28:18.900Z,1.60
2018-06-21T14:30:53.980Z,1.50
2018-06-21T14:33:21.490Z,1.57
2018-06-21T14:35:54.924Z,2.17
2018-06-21T14:38:26.594Z,2.15
2018-06-21T14:41:05.508Z,1.87
2018-06-21T14:43:45.819Z,1.67
2018-06-21T14:46:15.299Z,1.70
2018-06-21T14:48:46.903Z,1.60
2018-06-21T14:51:19.967Z,2.00
2018-06-21T14:53:52.266Z,1.50
2018-06-21T14:56:24.898Z,1.60
2018-06-21T14:58:56.784Z,1.40
2018-06-21T15:01:31.499Z,1.40
2018-06-21T15:04:04.545Z,1.47
2018-06-21T15:06:43.420Z,1.60
2018-06-21T15:09:15.665Z,1.67
2018-06-21T15:11:49.872Z,1.97
2018-06-21T15:14:26.576Z,1.63
2018-06-21T15:17:00.505Z,1.70
2018-06-21T15:19:39.085Z,2.07
2018-06-21T15:22:32.402Z,2.00
2018-06-21T15:25:07.733Z,2.27
2018-06-21T15:27:39.366Z,1.67
2018-06-21T15:30:12.093Z,1.57
2018-06-21T15:32:47.097Z,1.90
2018-06-21T15:35:19.472Z,1.60
2018-06-21T15:37:53.680Z,1.50
2018-06-21T15:40:22.879Z,1.60
2018-06-21T15:42:58.856Z,1.60
2018-06-21T15:45:26.094Z,1.50
2018-06-21T15:47:55.499Z,1.80
2018-06-21T15:50:25.205Z,2.00
2018-06-21T15:53:04.638Z,1.90
2018-06-21T15:55:36.014Z,1.53
2018-06-21T15:58:14.147Z,1.62
2018-06-21T16:00:46.315Z,1.33
2018-06-21T16:03:20.553Z,1.50
2018-06-21T16:05:51.175Z,1.30
2018-06-21T16:08:26.745Z,1.30
2018-06-21T16:10:56.246Z,1.30
2018-06-21T16:13:49.032Z,1.93
2018-06-21T16:16:22.676Z,6.63
2018-06-21T16:18:51.571Z,2.90
2018-06-21T16:21:20.374Z,5.07
2018-06-21T16:24:06.989Z,1.73
2018-06-21T16:26:35.826Z,1.63
2018-06-21T16:29:04.801Z,1.60
2018-06-21T16:31:33.675Z,1.97
2018-06-21T16:34:02.506Z,3.07
2018-06-21T16:36:31.387Z,1.80
2018-06-21T16:39:00.310Z,1.70
2018-06-21T16:41:31.310Z,1.87
2018-06-21T16:43:58.017Z,1.53
2018-06-21T16:46:27.097Z,2.12
2018-06-21T16:48:55.882Z,2.10
2018-06-21T16:51:24.766Z,2.43
2018-06-21T16:53:53.640Z,2.20
2018-06-21T16:56:22.490Z,2.70
2018-06-21T16:58:51.396Z,2.30
2018-06-21T17:01:20.424Z,2.00
2018-06-21T17:03:49.362Z,2.73
2018-06-21T17:06:18.384Z,1.73
2018-06-21T17:08:47.278Z,1.20
2018-06-21T17:11:16.196Z,2.10
2018-06-21T17:13:45.093Z,2.10
2018-06-21T17:16:13.960Z,1.73
2018-06-21T17:18:42.822Z,1.80
2018-06-21T17:21:13.703Z,2.08
2018-06-21T17:23:42.574Z,1.90
2018-06-21T17:26:11.744Z,2.10
2018-06-21T17:28:40.569Z,1.97
2018-06-21T17:31:09.421Z,1.90
2018-06-21T17:33:38.287Z,1.90
2018-06-21T17:36:07.316Z,1.93
2018-06-21T17:38:36.139Z,1.97
2018-06-21T17:41:05.236Z,1.90
2018-06-21T17:43:34.159Z,2.30
2018-06-21T17:46:03.000Z,2.00
2018-06-21T17:48:31.842Z,2.20
2018-06-21T17:51:02.448Z,2.40
2018-06-21T17:53:31.386Z,2.07
2018-06-21T17:56:00.246Z,1.87
2018-06-21T17:58:29.127Z,1.67
2018-06-21T18:00:58.011Z,2.60
2018-06-21T18:03:26.888Z,1.80
2018-06-21T18:05:55.788Z,1.93
2018-06-21T18:08:24.673Z,1.97
2018-06-21T18:10:53.638Z,2.30
2018-06-21T18:13:22.769Z,1.87
2018-06-21T18:15:51.553Z,2.07
2018-06-21T18:18:20.395Z,2.17
2018-06-21T18:20:49.290Z,1.87
2018-06-21T18:23:18.198Z,2.50
2018-06-21T18:25:47.035Z,1.63
2018-06-21T18:28:15.913Z,2.00
2018-06-21T18:30:44.787Z,1.90
2018-06-21T18:33:13.724Z,1.90
2018-06-21T18:35:45.701Z,1.67
2018-06-21T18:38:14.560Z,1.90
2018-06-21T18:40:43.418Z,1.60
2018-06-21T18:43:12.514Z,1.70
2018-06-21T18:45:41.388Z,1.67
2018-06-21T18:48:10.267Z,1.63
2018-06-21T18:50:39.155Z,1.63
2018-06-21T18:53:08.010Z,1.90
2018-06-21T18:55:36.895Z,2.00
2018-06-21T18:58:05.935Z,2.40
2018-06-21T19:00:34.798Z,2.63
2018-06-21T19:03:03.672Z,2.40
2018-06-21T19:05:32.853Z,2.90
2018-06-21T19:08:19.564Z,2.47
2018-06-21T19:11:06.224Z,2.60
2018-06-21T19:13:43.702Z,2.80
2018-06-21T19:16:12.944Z,2.97
2018-06-21T19:18:42.022Z,2.80
2018-06-21T19:21:10.924Z,2.33
2018-06-21T19:23:39.869Z,3.10
2018-06-21T19:26:08.706Z,2.53
2018-06-21T19:28:37.631Z,2.33
2018-06-21T19:31:06.980Z,3.47
2018-06-21T19:33:35.860Z,2.97
2018-06-21T19:36:04.721Z,2.60
2018-06-21T19:38:33.612Z,2.47
2018-06-21T19:41:02.564Z,2.60
2018-06-21T19:43:31.453Z,2.77
2018-06-21T19:46:00.370Z,2.60
2018-06-21T19:48:29.259Z,2.70
2018-06-21T19:50:58.177Z,2.50
2018-06-21T19:53:27.084Z,2.43
2018-06-21T19:55:56.010Z,3.03
2018-06-21T19:58:24.849Z,2.23
2018-06-21T20:00:55.072Z,2.40
2018-06-21T20:03:24.035Z,2.87
2018-06-21T20:05:52.842Z,2.70
2018-06-21T20:08:21.789Z,2.13
2018-06-21T20:11:08.510Z,2.73
2018-06-21T20:13:45.859Z,2.60
2018-06-21T20:16:14.973Z,2.80
2018-06-21T20:18:43.882Z,2.70
2018-06-21T20:22:08.129Z,2.30
2018-06-21T20:24:36.968Z,2.60
2018-06-21T20:27:05.905Z,2.57
2018-06-21T20:29:34.749Z,3.00
2018-06-21T20:32:03.662Z,2.40
2018-06-21T20:34:32.659Z,3.17
2018-06-21T20:37:01.571Z,2.27
2018-06-21T20:39:30.477Z,2.40
2018-06-21T20:41:59.389Z,3.00
2018-06-21T20:44:28.268Z,2.70
2018-06-21T20:46:57.102Z,2.60
2018-06-21T20:49:26.023Z,2.47
2018-06-21T20:51:54.882Z,2.53
2018-06-21T20:54:23.759Z,2.57
2018-06-21T20:56:52.736Z,3.00
2018-06-21T20:59:21.509Z,2.83
2018-06-21T21:01:50.412Z,3.20
2018-06-21T21:04:19.257Z,2.10
2018-06-21T21:06:48.173Z,2.90
2018-06-21T21:09:17.269Z,2.30
2018-06-21T21:11:46.031Z,2.50
2018-06-21T21:14:14.919Z,2.30
2018-06-21T21:16:43.946Z,2.70
2018-06-21T21:19:13.015Z,2.77
2018-06-21T21:21:42.172Z,2.33
2018-06-21T21:24:10.985Z,2.57
2018-06-21T21:26:39.884Z,2.27
2018-06-21T21:29:08.773Z,2.60
2018-06-21T21:31:37.663Z,2.03
2018-06-21T21:34:06.539Z,2.10
2018-06-21T21:36:35.361Z,3.00
2018-06-21T21:39:04.602Z,2.92
2018-06-21T21:41:33.496Z,2.50
2018-06-21T21:44:02.385Z,2.70
2018-06-21T21:46:31.263Z,2.77
2018-06-21T21:49:00.107Z,2.00
2018-06-21T21:51:32.228Z,2.27
2018-06-21T21:54:01.137Z,2.10
2018-06-21T21:56:29.957Z,2.23
2018-06-21T21:58:58.857Z,2.33
2018-06-21T22:01:27.750Z,2.70
2018-06-21T22:03:56.638Z,2.90
2018-06-21T22:06:25.606Z,1.90
2018-06-21T22:08:54.420Z,2.87
2018-06-21T22:11:23.258Z,2.70
2018-06-21T22:14:49.027Z,2.10
2018-06-21T22:17:17.898Z,2.57
2018-06-21T22:19:46.940Z,2.47
2018-06-21T22:22:15.799Z,2.60
2018-06-21T22:24:44.664Z,2.03
2018-06-21T22:27:13.521Z,2.00
2018-06-21T22:29:42.369Z,2.13
2018-06-21T22:32:11.333Z,2.20
2018-06-21T22:34:40.149Z,2.17
2018-06-21T22:37:44.604Z,2.50
2018-06-21T22:40:13.612Z,2.93
2018-06-21T22:42:42.472Z,2.50
2018-06-21T22:45:11.333Z,2.00
2018-06-21T22:47:40.413Z,2.77
2018-06-21T22:50:09.290Z,2.67
2018-06-21T22:52:38.468Z,2.33
2018-06-21T22:55:07.340Z,2.00
2018-06-21T22:57:36.232Z,2.20
2018-06-21T23:00:05.210Z,1.77
2018-06-21T23:02:34.077Z,2.13
2018-06-21T23:05:02.946Z,2.50
2018-06-21T23:07:31.830Z,2.40
2018-06-21T23:10:03.213Z,3.00
2018-06-21T23:12:29.647Z,2.60
2018-06-21T23:14:58.570Z,2.30
2018-06-21T23:17:27.471Z,2.57
2018-06-21T23:20:32.399Z,2.70
2018-06-21T23:23:01.284Z,2.90
2018-06-21T23:25:30.185Z,2.93
2018-06-21T23:27:59.036Z,2.50
2018-06-21T23:30:27.942Z,2.53
2018-06-21T23:32:56.824Z,3.70
2018-06-21T23:35:25.739Z,2.80
2018-06-21T23:37:54.626Z,2.63
2018-06-21T23:40:23.674Z,2.60
2018-06-21T23:42:52.627Z,2.30
2018-06-21T23:45:21.485Z,3.00
2018-06-21T23:47:50.350Z,2.93
2018-06-21T23:50:19.375Z,2.73
2018-06-21T23:52:48.261Z,3.70
2018-06-21T23:55:17.124Z,2.70
2018-06-21T23:57:46.033Z,2.97
